ADDS METAR Data INFO
IDs: Format: Raw Decoded Include TAF

Data at: 0213 UTC 17 Aug 2018

PFEL 170156Z AUTO 22009G16KT 180V250 10SM CLR 13/07 A2988 RMK AO2 SLP117 T01330072
PFEL 170056Z AUTO 21015G19KT 10SM CLR 13/08 A2987 RMK AO2 SLP116 T01330078
PFEL 162356Z AUTO 21013KT 10SM CLR 13/07 A2988 RMK AO2 SLP117 T01330072 10139 20117 57005
PFEL 162256Z AUTO 21013G17KT 10SM CLR 14/07 A2988 RMK AO2 SLP119 T01390072
PFEL 162156Z AUTO 20009KT 10SM CLR 13/07 A2989 RMK AO2 SLP121 T01280067
PFEL 162056Z AUTO 22007G16KT 10SM CLR 13/07 A2989 RMK AO2 SLP122 T01280067 55003
PFEL 161956Z AUTO 21007KT 160V240 10SM CLR 13/07 A2989 RMK AO2 SLP122 T01280067
PFEL 161856Z AUTO 25008KT 10SM CLR 13/07 A2990 RMK AO2 SLP123 T01280067
PFEL 161756Z AUTO VRB05KT 10SM CLR 12/08 A2990 RMK AO2 SLP126 T01170078 10117 20100 56004
PFEL 161656Z AUTO 26009G14KT 230V300 10SM CLR 11/07 A2990 RMK AO2 SLP127 T01060067
PFEL 161556Z AUTO 25007KT 10SM CLR 11/04 A2991 RMK AO2 SLP128 T01060044
PFEL 161456Z AUTO 25006KT 10SM CLR 11/05 A2991 RMK AO2 SLP130 T01060050 57006
PFEL 161356Z AUTO 24005KT 10SM CLR 11/04 A2992 RMK AO2 SLP132 T01060039
PFEL 161256Z AUTO 26007KT 10SM CLR 11/03 A2992 RMK AO2 SLP134 T01060033
PFEL 161156Z AUTO 26010G16KT 10SM CLR 11/04 A2993 RMK AO2 SLP135 T01060039 10117 20106 58002
PFEL 161056Z AUTO VRB05KT 10SM OVC065 11/06 A2994 RMK AO2 SLP138 T01110056
PFEL 160956Z AUTO 28006KT 10SM OVC065 11/05 A2994 RMK AO2 SLP138 T01110050
PFEL 160856Z AUTO 25008KT 10SM BKN075 12/05 A2994 RMK AO2 SLP137 T01170050 401330083 50001
PFEL 160756Z AUTO 26009KT 10SM OVC080 11/05 A2994 RMK AO2 SLP139 T01110050
PFEL 160656Z AUTO 26008KT 230V300 10SM OVC090 12/05 A2994 RMK AO2 SLP138 T01170050
PFEL 160556Z AUTO 26006KT 10SM BKN100 12/05 A2993 RMK AO2 SLP138 T01170050 10133 20117 56002
PFEL 160456Z AUTO 25003KT 10SM CLR 12/05 A2994 RMK AO2 SLP138 T01220050
PFEL 160356Z AUTO VRB04KT 10SM CLR 12/05 A2994 RMK AO2 SLP139 T01220050
PFEL 160256Z AUTO 20003KT 10SM CLR 13/04 A2994 RMK AO2 SLP140 T01280044 55003
PFEL 160156Z AUTO 20007KT 10SM CLR 12/03 A2994 RMK AO2 SLP139 T01220033
PFEL 160056Z AUTO 21005KT 10SM CLR 12/02 A2994 RMK AO2 SLP140 T01220017
PFEL 152356Z AUTO 17006KT 10SM CLR 13/02 A2995 RMK AO2 SLP143 T01330017 10133 20111 58000
PFEL 152256Z AUTO 13005KT 10SM CLR 13/04 A2995 RMK AO2 SLP144 T01280044
PFEL 152156Z AUTO 11006KT 10SM CLR 13/04 A2995 RMK AO2 SLP144 T01280044
PFEL 152056Z AUTO 10007KT 10SM CLR 12/03 A2995 RMK AO2 SLP143 T01220033 51005
PFEL 151956Z AUTO 08007KT 10SM SCT045 12/03 A2995 RMK AO2 SLP142 T01170033
PFEL 151856Z AUTO 05007KT 10SM FEW044 11/01 A2994 RMK AO2 SLP141 T01110011
PFEL 151756Z AUTO 04009KT 10SM BKN044 11/02 A2994 RMK AO2 SLP139 T01110017 10111 20083 53010
PFEL 151656Z AUTO 36006KT 10SM BKN060 10/02 A2992 RMK AO2 SLP134 T01000017
PFEL 151556Z AUTO 36009KT 10SM FEW050 SCT065 09/01 A2991 RMK AO2 SLP130 T00940011
PFEL 151456Z AUTO 36007KT 10SM BKN046 OVC060 09/01 A2991 RMK AO2 SLP129 T00890011 53006